Time;durP1;ratioP1;P1;durP2;ratioP2;P2;SDS_P1;SDS_P2;PMS_P1;PMS_P2;Temp;Humidity;BMP_temperature;BMP_pressure;BME280_temperature;BME280_humidity;BME280_pressure;Samples;Min_cycle;Max_cycle;Signal;HPM_P1;HPM_P2
2023/11/06 00:02:09;;;;;;;3.63;1.40;;;;;;;14.74;68.04;98736.43;122712;1107;104290;-75
2023/11/06 00:04:40;;;;;;;2.50;1.10;;;;;;;14.71;67.67;98731.18;122932;1109;104271;-76
2023/11/06 00:07:12;;;;;;;2.80;1.10;;;;;;;14.69;68.00;98727.69;122702;1109;104390;-75
2023/11/06 00:09:45;;;;;;;1.60;0.90;;;;;;;14.67;67.95;98734.73;122778;1108;104265;-75
2023/11/06 00:12:16;;;;;;;3.63;0.97;;;;;;;14.67;67.52;98729.45;122697;1109;104377;-76
2023/11/06 00:14:47;;;;;;;1.70;0.87;;;;;;;14.65;67.05;98731.23;122673;1107;104258;-76
2023/11/06 00:17:19;;;;;;;2.47;1.00;;;;;;;14.65;67.49;98738.29;122746;1108;104396;-76
2023/11/06 00:19:50;;;;;;;1.70;0.70;;;;;;;14.64;66.88;98741.81;122755;1109;104242;-77
2023/11/06 00:22:21;;;;;;;1.30;1.10;;;;;;;14.63;67.77;98733.02;122760;1109;104361;-76
2023/11/06 00:24:53;;;;;;;3.00;0.80;;;;;;;14.63;66.92;98740.05;122611;1109;104377;-75
2023/11/06 00:27:25;;;;;;;2.10;0.80;;;;;;;14.63;67.30;98747.97;122690;1107;104306;-76
2023/11/06 00:29:56;;;;;;;2.00;0.70;;;;;;;14.62;66.63;98760.30;122768;1109;104255;-76
2023/11/06 00:32:28;;;;;;;1.27;0.93;;;;;;;14.62;67.83;98768.22;122625;1108;104297;-76
2023/11/06 00:34:59;;;;;;;1.05;0.90;;;;;;;14.62;67.25;98767.36;122664;1109;104312;-76
2023/11/06 00:37:31;;;;;;;3.00;0.90;;;;;;;14.61;66.69;98762.95;122683;1108;104367;-76
2023/11/06 00:40:04;;;;;;;1.40;0.87;;;;;;;14.59;66.74;98768.20;122671;1108;104335;-76
2023/11/06 00:42:35;;;;;;;1.87;0.97;;;;;;;14.55;66.64;98777.92;122631;1109;104294;-76
2023/11/06 00:45:08;;;;;;;3.90;1.23;;;;;;;14.54;66.69;98784.08;122624;1109;104291;-77
2023/11/06 00:47:39;;;;;;;1.25;0.80;;;;;;;14.54;66.83;98785.86;122615;1109;104740;-76
2023/11/06 00:50:11;;;;;;;1.30;0.90;;;;;;;14.52;67.06;98792.89;122546;1109;104440;-76
2023/11/06 00:52:42;;;;;;;1.20;0.80;;;;;;;14.50;67.53;98797.31;122586;1109;104197;-75
2023/11/06 00:55:14;;;;;;;5.50;1.13;;;;;;;14.47;66.53;98803.48;122699;1109;104369;-75
2023/11/06 00:57:49;;;;;;;1.80;1.00;;;;;;;14.47;67.13;98808.75;122624;1109;104236;-75
2023/11/06 01:00:22;;;;;;;1.17;1.00;;;;;;;14.45;67.63;98807.90;122738;1109;104340;-76
2023/11/06 01:02:53;;;;;;;1.13;0.90;;;;;;;14.42;67.13;98807.06;123747;1108;104903;-76
2023/11/06 01:05:25;;;;;;;2.20;0.90;;;;;;;14.37;67.46;98810.59;122784;1108;104377;-76
2023/11/06 01:07:57;;;;;;;2.07;1.00;;;;;;;14.36;66.89;98818.52;122935;1109;104370;-76
2023/11/06 01:10:28;;;;;;;3.03;1.07;;;;;;;14.32;67.21;98819.41;122770;1106;104258;-76
2023/11/06 01:13:00;;;;;;;1.23;0.97;;;;;;;14.29;66.53;98825.60;122802;1109;104182;-76
2023/11/06 01:15:32;;;;;;;1.15;0.80;;;;;;;14.26;66.98;98830.90;122669;1109;104360;-75
2023/11/06 01:18:04;;;;;;;1.13;0.90;;;;;;;14.23;67.41;98833.55;122657;1109;104331;-76
2023/11/06 01:20:35;;;;;;;2.03;0.90;;;;;;;14.20;67.39;98831.80;122761;1109;104409;-76
2023/11/06 01:23:07;;;;;;;1.73;1.00;;;;;;;14.16;66.71;98848.55;122729;1109;104379;-77
2023/11/06 01:25:42;;;;;;;1.50;1.10;;;;;;;14.14;66.66;98852.06;122771;1108;104364;-75
2023/11/06 01:28:14;;;;;;;2.77;1.37;;;;;;;14.11;66.60;98863.50;122658;1109;104318;-76
2023/11/06 01:30:45;;;;;;;1.80;1.10;;;;;;;14.06;67.11;98867.92;122780;1108;104293;-76
2023/11/06 01:33:18;;;;;;;1.90;1.17;;;;;;;14.03;66.65;98868.80;122704;1106;104370;-76
2023/11/06 01:35:49;;;;;;;2.15;0.85;;;;;;;14.01;66.96;98870.58;122711;1109;104296;-76
2023/11/06 01:38:20;;;;;;;1.43;1.00;;;;;;;13.97;67.45;98868.83;122713;1108;104329;-76
2023/11/06 01:40:52;;;;;;;1.93;1.40;;;;;;;13.94;66.70;98879.39;122771;1109;104424;-76
2023/11/06 01:43:26;;;;;;;3.45;1.50;;;;;;;13.90;66.80;98875.03;122679;1109;104465;-75
2023/11/06 01:45:57;;;;;;;4.90;1.20;;;;;;;13.86;67.17;98896.14;122735;1109;104284;-76
2023/11/06 01:48:30;;;;;;;1.50;1.20;;;;;;;13.79;67.38;98892.62;122635;1107;104386;-76
2023/11/06 01:51:02;;;;;;;3.70;1.10;;;;;;;13.71;67.58;98897.92;122839;1106;104261;-76
2023/11/06 01:53:34;;;;;;;5.20;1.70;;;;;;;13.68;66.73;98900.59;122595;1108;104348;-76
2023/11/06 01:56:06;;;;;;;4.67;2.30;;;;;;;13.64;66.99;98910.24;122755;1109;104325;-77
2023/11/06 01:58:38;;;;;;;2.07;1.47;;;;;;;13.67;67.00;98906.73;122616;1109;104370;-75
2023/11/06 02:01:10;;;;;;;3.77;1.67;;;;;;;13.67;67.79;98912.01;122748;1108;104355;-76
2023/11/06 02:03:41;;;;;;;2.27;1.40;;;;;;;13.65;67.76;98908.51;122730;1108;104774;-76
2023/11/06 02:06:12;;;;;;;3.23;1.70;;;;;;;13.62;67.86;98914.66;122738;1109;104309;-76
2023/11/06 02:08:44;;;;;;;1.50;1.30;;;;;;;13.60;67.66;98921.70;122678;1109;104328;-76
2023/11/06 02:11:16;;;;;;;1.90;1.00;;;;;;;13.59;67.95;98921.70;122784;1109;104271;-76
2023/11/06 02:13:47;;;;;;;2.33;1.13;;;;;;;13.57;67.78;98931.34;122713;1109;104220;-75
2023/11/06 02:16:19;;;;;;;1.90;1.30;;;;;;;13.55;67.39;98936.61;122893;1108;104246;-76
2023/11/06 02:18:51;;;;;;;2.35;1.30;;;;;;;13.54;67.87;98940.15;122747;1109;104325;-76
2023/11/06 02:21:22;;;;;;;5.17;1.30;;;;;;;13.52;67.92;98938.39;122773;1108;104261;-76
2023/11/06 02:23:54;;;;;;;5.27;1.50;;;;;;;13.49;67.70;98944.52;122794;1109;104293;-75
2023/11/06 02:26:25;;;;;;;2.03;1.03;;;;;;;13.48;68.14;98950.70;122765;1107;104287;-76
2023/11/06 02:28:56;;;;;;;3.17;1.27;;;;;;;13.46;67.77;98960.34;122838;1109;104258;-75
2023/11/06 02:31:29;;;;;;;2.17;1.20;;;;;;;13.44;68.00;98962.97;122738;1109;104408;-77
2023/11/06 02:34:01;;;;;;;2.20;1.47;;;;;;;13.38;68.38;98959.47;122756;1106;104290;-76
2023/11/06 02:36:32;;;;;;;2.17;1.57;;;;;;;13.30;67.77;98960.30;122777;1109;104380;-77
2023/11/06 02:39:04;;;;;;;3.10;1.80;;;;;;;13.25;68.15;98961.20;122806;1109;104259;-77
2023/11/06 02:41:36;;;;;;;1.73;1.30;;;;;;;13.20;67.62;98966.47;122754;1109;104336;-77
2023/11/06 02:44:07;;;;;;;5.83;1.67;;;;;;;13.16;68.51;98966.47;122819;1108;104387;-77
2023/11/06 02:46:39;;;;;;;2.95;1.25;;;;;;;13.11;67.91;98971.73;122780;1107;104345;-77
2023/11/06 02:49:10;;;;;;;3.40;1.40;;;;;;;13.07;68.36;98972.59;122815;1109;104214;-77
2023/11/06 02:51:42;;;;;;;2.60;1.40;;;;;;;13.04;68.61;98983.12;122755;1109;104382;-77
2023/11/06 02:54:13;;;;;;;3.33;1.37;;;;;;;12.99;67.93;98991.01;122810;1108;117872;-78
2023/11/06 02:56:44;;;;;;;4.13;1.33;;;;;;;12.97;68.43;98991.91;122749;1109;104450;-77
2023/11/06 02:59:16;;;;;;;3.73;1.30;;;;;;;12.96;68.99;99001.53;122855;1106;104296;-77
2023/11/06 03:01:47;;;;;;;2.80;1.55;;;;;;;12.93;68.00;99007.69;122783;1108;104290;-78
2023/11/06 03:04:18;;;;;;;2.40;1.40;;;;;;;12.91;68.85;99017.31;122829;1108;104361;-77
2023/11/06 03:06:49;;;;;;;4.65;1.50;;;;;;;12.92;68.88;99018.22;122665;1107;104338;-77
2023/11/06 03:09:21;;;;;;;2.10;1.60;;;;;;;12.91;68.61;99017.31;122767;1109;104406;-78
2023/11/06 03:11:52;;;;;;;3.10;1.20;;;;;;;12.91;68.50;99032.25;122771;1109;104747;-76
2023/11/06 03:14:23;;;;;;;1.60;1.27;;;;;;;12.89;68.74;99028.74;122728;1109;104341;-76
2023/11/06 03:16:55;;;;;;;2.50;1.47;;;;;;;12.86;69.15;99042.77;122794;1109;104469;-76
2023/11/06 03:19:26;;;;;;;2.10;1.30;;;;;;;12.85;69.01;99055.92;122824;1109;104354;-76
2023/11/06 03:21:57;;;;;;;2.55;1.30;;;;;;;12.82;68.71;99062.05;122772;1108;104437;-75
2023/11/06 03:24:29;;;;;;;2.83;1.50;;;;;;;12.78;68.86;99062.92;122919;1109;104185;-76
2023/11/06 03:27:00;;;;;;;3.87;1.90;;;;;;;12.75;68.98;99070.81;122657;1109;104253;-76
2023/11/06 03:29:31;;;;;;;3.03;1.60;;;;;;;12.70;68.74;99072.52;122791;1107;104369;-76
2023/11/06 03:32:03;;;;;;;2.90;1.30;;;;;;;12.65;69.02;99076.89;122782;1109;104472;-76
2023/11/06 03:34:34;;;;;;;4.07;1.70;;;;;;;12.60;69.07;99076.88;122836;1108;104422;-77
2023/11/06 03:37:05;;;;;;;3.30;2.00;;;;;;;12.57;69.13;99092.64;122804;1108;104280;-76
2023/11/06 03:39:37;;;;;;;9.40;1.80;;;;;;;12.54;69.11;99093.53;122671;1109;104322;-76
2023/11/06 03:42:09;;;;;;;6.47;1.87;;;;;;;12.51;69.23;99096.14;122828;1109;104396;-76
2023/11/06 03:44:40;;;;;;;4.20;1.90;;;;;;;12.48;69.67;99103.12;122714;1108;104348;-76
2023/11/06 03:47:11;;;;;;;5.63;2.13;;;;;;;12.46;69.47;99103.11;122770;1109;104389;-76
2023/11/06 03:49:43;;;;;;;4.27;1.43;;;;;;;12.44;69.58;99107.49;122773;1109;104271;-77
2023/11/06 03:52:14;;;;;;;4.23;1.63;;;;;;;12.42;69.82;99096.09;122750;1109;104261;-77
2023/11/06 03:54:45;;;;;;;3.80;1.80;;;;;;;12.40;69.69;99100.44;122730;1109;104270;-77
2023/11/06 03:57:17;;;;;;;5.23;1.73;;;;;;;12.39;69.82;99093.44;122821;1109;104411;-76
2023/11/06 03:59:48;;;;;;;5.00;2.40;;;;;;;12.39;69.90;99093.44;122763;1109;104396;-76
2023/11/06 04:02:19;;;;;;;5.10;2.50;;;;;;;12.31;69.95;99101.28;122886;1109;104303;-76
2023/11/06 04:04:50;;;;;;;5.93;1.93;;;;;;;12.29;69.84;99102.13;122786;1109;104268;-76
2023/11/06 04:07:22;;;;;;;4.63;2.10;;;;;;;12.26;69.89;99107.38;122799;1109;104290;-75
2023/11/06 04:09:54;;;;;;;6.13;2.30;;;;;;;12.22;70.37;99102.09;122778;1106;104351;-76
2023/11/06 04:12:25;;;;;;;3.73;2.07;;;;;;;12.18;70.30;99112.58;122836;1109;104219;-76
2023/11/06 04:14:57;;;;;;;4.93;2.20;;;;;;;12.18;70.21;99104.69;122790;1109;104338;-76
2023/11/06 04:17:30;;;;;;;6.27;2.10;;;;;;;12.18;70.48;99109.95;122752;1109;104251;-76
2023/11/06 04:20:01;;;;;;;3.83;2.30;;;;;;;12.17;70.38;99103.82;122801;1108;104261;-77
2023/11/06 04:22:34;;;;;;;3.03;1.90;;;;;;;12.15;70.47;99116.06;122806;1109;104336;-76
2023/11/06 04:25:06;;;;;;;5.40;2.20;;;;;;;12.12;70.01;99131.81;122761;1109;104415;-75
2023/11/06 04:27:37;;;;;;;5.17;2.00;;;;;;;12.07;70.25;99123.02;122811;1109;104274;-76
2023/11/06 04:30:12;;;;;;;4.17;1.97;;;;;;;12.07;70.27;99132.66;122826;1108;104328;-77
2023/11/06 04:32:43;;;;;;;3.97;2.30;;;;;;;12.01;70.33;99130.86;122953;1108;104249;-76
2023/11/06 04:35:15;;;;;;;3.10;1.80;;;;;;;11.97;70.44;99143.11;122912;1108;104381;-77
2023/11/06 04:37:46;;;;;;;3.40;1.80;;;;;;;11.98;70.81;99154.49;122847;1109;104447;-76
2023/11/06 04:40:19;;;;;;;2.93;1.50;;;;;;;11.99;70.71;99158.89;122763;1109;104305;-76
2023/11/06 04:42:51;;;;;;;3.17;1.30;;;;;;;12.01;70.67;99168.56;122847;1108;104329;-76
2023/11/06 04:45:22;;;;;;;5.17;1.50;;;;;;;12.05;70.87;99174.72;122867;1107;104351;-76
2023/11/06 04:47:53;;;;;;;3.63;1.30;;;;;;;12.09;70.75;99172.98;122928;1109;104325;-77
2023/11/06 04:50:24;;;;;;;4.47;1.67;;;;;;;12.11;70.81;99179.16;122835;1108;104460;-77
2023/11/06 04:52:56;;;;;;;2.60;1.20;;;;;;;12.12;70.89;99187.03;122906;1109;104379;-77
2023/11/06 04:55:28;;;;;;;2.63;1.30;;;;;;;12.14;70.62;99198.47;122951;1109;104264;-77
2023/11/06 04:57:59;;;;;;;2.53;1.33;;;;;;;12.17;70.78;99202.84;122933;1108;104290;-77
2023/11/06 05:00:31;;;;;;;3.93;1.40;;;;;;;12.18;71.00;99204.62;122883;1108;104242;-77
2023/11/06 05:03:03;;;;;;;2.70;1.45;;;;;;;12.20;71.14;99209.03;122895;1109;104352;-76
2023/11/06 05:05:34;;;;;;;7.23;2.13;;;;;;;12.22;70.81;99212.55;122991;1107;104293;-78
2023/11/06 05:08:06;;;;;;;6.10;1.90;;;;;;;12.22;70.97;99212.55;123381;1108;104290;-77
2023/11/06 05:10:38;;;;;;;3.30;2.00;;;;;;;12.20;71.17;99224.81;123995;1108;104268;-79
2023/11/06 05:13:09;;;;;;;7.73;2.60;;;;;;;12.25;71.24;99229.21;124506;1108;104312;-77
2023/11/06 05:15:40;;;;;;;8.70;3.15;;;;;;;12.29;71.25;99231.02;123947;1109;104409;-77
2023/11/06 05:18:11;;;;;;;24.45;4.05;;;;;;;12.30;70.96;99241.55;123012;1108;104261;-76
2023/11/06 05:20:44;;;;;;;13.10;2.60;;;;;;;12.31;70.95;99242.41;122920;1109;104334;-77
2023/11/06 05:23:15;;;;;;;7.37;1.90;;;;;;;12.32;71.22;99250.32;123054;1109;104262;-77
2023/11/06 05:25:46;;;;;;;8.87;2.50;;;;;;;12.33;71.31;99248.59;122712;1109;104308;-77
2023/11/06 05:28:18;;;;;;;8.67;2.80;;;;;;;12.35;71.37;99255.61;122767;1109;104699;-77
2023/11/06 05:30:49;;;;;;;8.37;2.90;;;;;;;12.38;71.54;99249.50;122957;1109;104296;-77
2023/11/06 05:33:21;;;;;;;8.73;2.77;;;;;;;12.40;71.59;99246.03;122814;1109;104521;-76
2023/11/06 05:35:52;;;;;;;11.60;3.07;;;;;;;12.40;71.84;99247.75;122659;1109;104287;-76
2023/11/06 05:38:23;;;;;;;6.43;2.20;;;;;;;12.41;71.64;99252.16;122932;1108;104699;-77
2023/11/06 05:40:55;;;;;;;6.53;2.53;;;;;;;12.46;71.81;99260.09;123027;1106;104269;-75
2023/11/06 05:43:26;;;;;;;6.00;2.33;;;;;;;12.50;71.60;99270.66;123211;1108;104269;-77
2023/11/06 05:45:58;;;;;;;11.77;3.33;;;;;;;12.56;71.63;99277.73;123407;1108;104650;-78
2023/11/06 05:48:29;;;;;;;12.47;3.03;;;;;;;12.65;71.82;99282.16;123131;1109;104261;-76
2023/11/06 05:51:01;;;;;;;12.47;3.40;;;;;;;12.71;72.00;99290.98;123311;1108;104286;-76
2023/11/06 05:53:32;;;;;;;7.23;2.50;;;;;;;12.76;72.00;99298.91;123441;1109;104328;-77
2023/11/06 05:56:03;;;;;;;7.47;3.20;;;;;;;12.84;72.02;99301.59;123329;1109;104339;-78
2023/11/06 05:58:35;;;;;;;6.37;2.47;;;;;;;12.91;72.18;99320.08;123159;1108;104242;-76
2023/11/06 06:01:09;;;;;;;12.43;3.30;;;;;;;12.99;71.98;99316.64;123056;1108;104320;-74
2023/11/06 06:03:41;;;;;;;20.02;3.27;;;;;;;13.07;71.90;99330.73;123368;1108;104299;-75
2023/11/06 06:06:16;;;;;;;13.47;3.53;;;;;;;13.12;72.20;99347.47;123057;1109;104275;-75
2023/11/06 06:08:47;;;;;;;8.20;3.23;;;;;;;13.17;72.03;99352.77;123199;1109;104261;-76
2023/11/06 06:11:19;;;;;;;7.10;2.95;;;;;;;13.23;72.30;99340.51;123156;1109;104319;-74
2023/11/06 06:13:50;;;;;;;19.47;4.33;;;;;;;13.30;72.10;99344.92;123390;1108;104258;-75
2023/11/06 06:16:21;;;;;;;14.53;3.97;;;;;;;13.40;72.09;99337.11;123421;1109;104239;-75
2023/11/06 06:18:53;;;;;;;8.03;2.70;;;;;;;13.49;71.81;99337.16;123329;1109;104434;-76
2023/11/06 06:21:24;;;;;;;8.47;2.67;;;;;;;13.59;72.28;99351.29;123536;1109;102569;-73
2023/11/06 06:23:57;;;;;;;4.27;2.07;;;;;;;13.70;71.88;99356.58;123409;1106;104342;-72
2023/11/06 06:26:29;;;;;;;9.53;2.57;;;;;;;13.81;72.14;99352.27;123315;1109;104185;-74
2023/11/06 06:29:01;;;;;;;7.93;2.23;;;;;;;13.93;72.54;99362.86;123537;1109;104328;-74
2023/11/06 06:31:33;;;;;;;9.00;2.80;;;;;;;14.06;72.39;99358.50;123348;1109;104283;-75
2023/11/06 06:34:08;;;;;;;5.33;1.80;;;;;;;14.17;72.02;99367.32;123572;1109;104290;-75
2023/11/06 06:36:39;;;;;;;7.75;2.10;;;;;;;14.29;72.25;99371.77;123594;1109;104271;-75
2023/11/06 06:39:11;;;;;;;4.23;1.70;;;;;;;14.43;71.10;99374.44;123354;1109;104300;-73
2023/11/06 06:41:43;;;;;;;2.53;1.30;;;;;;;14.57;71.69;99379.75;123473;1108;104238;-72
2023/11/06 06:44:14;;;;;;;4.30;1.70;;;;;;;14.71;71.31;99377.16;123412;1108;104086;-72
2023/11/06 06:46:46;;;;;;;5.57;1.47;;;;;;;14.82;71.58;99378.04;123502;1109;104216;-75
2023/11/06 06:49:17;;;;;;;9.90;2.20;;;;;;;14.92;70.67;99378.91;123626;1108;104198;-74
2023/11/06 06:51:49;;;;;;;19.43;7.50;;;;;;;14.94;71.00;99374.50;123722;1108;104724;-75
2023/11/06 06:54:22;;;;;;;22.47;8.53;;;;;;;14.95;71.46;99383.33;123851;1109;104942;-75
2023/11/06 06:56:57;;;;;;;23.13;9.50;;;;;;;14.95;70.58;99381.55;123813;1109;102262;-75
2023/11/06 06:59:30;;;;;;;19.98;8.35;;;;;;;14.96;70.99;99374.50;123758;1108;104185;-76
2023/11/06 07:02:01;;;;;;;17.73;7.80;;;;;;;15.01;70.33;99378.91;123790;1109;103588;-73
2023/11/06 07:04:38;;;;;;;18.83;7.30;;;;;;;15.09;70.46;99386.84;123804;1109;102534;-78
2023/11/06 07:07:09;;;;;;;17.03;6.33;;;;;;;15.11;70.39;99398.27;123719;1108;102706;-73
2023/11/06 07:09:42;;;;;;;14.33;5.90;;;;;;;15.20;70.39;99400.05;123852;1106;103301;-76
2023/11/06 07:12:14;;;;;;;14.57;5.90;;;;;;;15.31;69.85;99407.97;124211;1109;102990;-76
2023/11/06 07:14:46;;;;;;;12.67;4.70;;;;;;;15.44;70.69;99410.59;124172;1109;104261;-78
2023/11/06 07:17:18;;;;;;;11.60;4.70;;;;;;;15.58;70.41;99407.92;124059;1108;102616;-75
2023/11/06 07:19:53;;;;;;;13.20;4.60;;;;;;;15.73;70.01;99414.92;124004;1108;103141;-76
2023/11/06 07:22:25;;;;;;;7.87;3.73;;;;;;;15.87;69.27;99419.34;123848;1109;104388;-76
2023/11/06 07:24:58;;;;;;;6.40;2.40;;;;;;;15.98;69.23;99428.11;124088;1109;103132;-75
2023/11/06 07:27:29;;;;;;;5.10;2.60;;;;;;;16.10;68.98;99430.72;123785;1109;104258;-73
2023/11/06 07:30:10;;;;;;;4.57;2.13;;;;;;;16.23;68.87;99435.96;123759;1109;104261;-75
2023/11/06 07:32:52;;;;;;;7.77;1.80;;;;;;;16.24;68.17;99428.02;123817;1109;103759;-75
2023/11/06 07:35:33;;;;;;;5.07;1.67;;;;;;;16.38;68.40;99440.28;123841;1108;103385;-76
2023/11/06 07:38:11;;;;;;;3.00;1.53;;;;;;;16.43;68.17;99446.46;123699;1109;104289;-75
2023/11/06 07:40:57;;;;;;;4.63;1.60;;;;;;;16.46;67.85;99452.61;123768;1109;104194;-77
2023/11/06 07:43:29;;;;;;;4.00;1.20;;;;;;;16.46;67.63;99460.55;123856;1108;102406;-76
2023/11/06 07:46:06;;;;;;;5.03;1.53;;;;;;;16.49;67.27;99457.02;123667;1109;104261;-75
2023/11/06 07:48:39;;;;;;;3.17;1.30;;;;;;;16.44;66.78;99459.69;123765;1109;104194;-77
2023/11/06 07:51:11;;;;;;;2.60;1.17;;;;;;;16.41;66.73;99462.35;123903;1109;104275;-76
2023/11/06 07:53:43;;;;;;;3.17;1.53;;;;;;;16.38;66.49;99470.31;123614;1109;104364;-76
2023/11/06 07:56:17;;;;;;;6.47;1.90;;;;;;;16.44;65.84;99464.98;124177;1107;104268;-76
2023/11/06 07:58:49;;;;;;;2.83;1.00;;;;;;;16.54;65.74;99466.68;124269;1109;104242;-77
2023/11/06 08:01:22;;;;;;;1.37;0.93;;;;;;;16.64;65.55;99464.89;123976;1109;104305;-73
2023/11/06 08:08:29;;;;;;;1.73;1.20;;;;;;;16.96;64.84;99481.50;125411;1109;102533;-76
2023/11/06 08:11:21;;;;;;;2.60;1.30;;;;;;;17.10;64.41;99492.88;125429;1108;103105;-76
2023/11/06 08:13:57;;;;;;;2.67;1.10;;;;;;;17.22;63.39;99487.49;125571;1107;102216;-75
2023/11/06 08:16:34;;;;;;;5.77;1.20;;;;;;;17.34;63.69;99504.19;125203;1107;102559;-75
2023/11/06 08:19:09;;;;;;;2.80;1.20;;;;;;;17.43;63.33;99504.12;124078;1109;102789;-76
2023/11/06 08:21:51;;;;;;;3.10;1.43;;;;;;;17.50;62.98;99502.28;123974;1109;103105;-76
2023/11/06 08:24:33;;;;;;;1.73;1.10;;;;;;;17.57;62.17;99506.66;123968;1108;104287;-78
2023/11/06 08:27:06;;;;;;;1.13;1.00;;;;;;;17.66;61.82;99493.31;123879;1108;104242;-77
2023/11/06 08:29:41;;;;;;;2.43;0.80;;;;;;;17.76;62.19;99499.40;124067;1109;104420;-76
2023/11/06 08:32:14;;;;;;;3.10;1.40;;;;;;;17.86;62.10;99494.91;124474;1109;104750;-76
2023/11/06 08:34:49;;;;;;;3.27;1.10;;;;;;;17.93;61.30;99504.58;123966;1109;104299;-76
2023/11/06 08:37:26;;;;;;;1.80;1.10;;;;;;;18.01;60.90;99505.37;123986;1108;104172;-75
2023/11/06 08:39:58;;;;;;;3.90;1.00;;;;;;;18.09;60.69;99513.25;123639;1109;104363;-76
2023/11/06 08:42:30;;;;;;;2.23;1.20;;;;;;;18.11;60.45;99501.73;123800;1109;104397;-75
2023/11/06 08:45:02;;;;;;;3.60;1.33;;;;;;;18.20;60.56;99500.76;123835;1108;104364;-77
2023/11/06 08:47:34;;;;;;;2.20;1.20;;;;;;;18.29;60.62;99500.66;123669;1108;104240;-77
2023/11/06 08:50:06;;;;;;;2.23;1.20;;;;;;;18.36;59.96;99500.58;123851;1109;104042;-76
2023/11/06 08:52:40;;;;;;;;;;;;;;;18.45;59.50;99511.97;123996;1109;103351;-76
2023/11/06 08:55:12;;;;;;;1.70;1.10;;;;;;;18.50;59.45;99509.25;123835;1109;104246;-79
2023/11/06 08:57:45;;;;;;;1.60;1.15;;;;;;;18.51;58.90;99510.98;123880;1108;104211;-78
2023/11/06 09:00:16;;;;;;;;;;;;;;;18.54;59.18;99505.64;124065;1109;104134;-76
2023/11/06 09:03:00;;;;;;;1.77;1.27;;;;;;;18.60;58.93;99505.56;124025;1108;104246;-77
2023/11/06 09:05:33;;;;;;;3.30;1.50;;;;;;;18.67;58.72;99512.56;124267;1108;104237;-77
2023/11/06 09:08:05;;;;;;;4.87;1.27;;;;;;;18.74;58.63;99512.48;124232;1109;102660;-78
2023/11/06 09:10:36;;;;;;;4.37;1.20;;;;;;;18.83;58.18;99504.39;123893;1109;103474;-77
2023/11/06 09:13:09;;;;;;;3.13;1.57;;;;;;;18.90;58.19;99510.52;124035;1107;104207;-77
2023/11/06 09:15:41;;;;;;;3.40;1.30;;;;;;;19.00;58.12;99520.13;124040;1108;104188;-77
2023/11/06 09:18:13;;;;;;;4.67;1.33;;;;;;;19.07;58.45;99512.94;124027;1109;103917;-76
2023/11/06 09:20:48;;;;;;;1.77;0.90;;;;;;;19.13;57.83;99512.84;123885;1109;104376;-77
2023/11/06 09:23:21;;;;;;;2.60;1.27;;;;;;;19.14;56.42;99515.48;123759;1109;104265;-77
2023/11/06 09:25:54;;;;;;;2.77;1.30;;;;;;;19.22;56.26;99523.34;123651;1109;104316;-77
2023/11/06 09:28:26;;;;;;;1.15;0.82;;;;;;;19.27;55.64;99523.27;123627;1109;102262;-76
2023/11/06 09:30:57;;;;;;;2.30;1.13;;;;;;;19.32;55.08;99540.03;123516;1109;104121;-76
2023/11/06 09:33:29;;;;;;;1.00;0.70;;;;;;;19.34;52.14;99541.78;123511;1108;104233;-77
2023/11/06 09:36:04;;;;;;;0.77;0.57;;;;;;;19.21;51.12;99535.77;123745;1108;104227;-78
2023/11/06 09:38:36;;;;;;;1.30;0.83;;;;;;;19.23;52.57;99533.09;123760;1108;104204;-77
2023/11/06 09:41:09;;;;;;;0.83;0.70;;;;;;;19.26;50.84;99540.12;124030;1107;105482;-78
2023/11/06 09:43:46;;;;;;;1.20;0.80;;;;;;;19.27;51.32;99541.89;123722;1109;103001;-76
2023/11/06 09:46:26;;;;;;;2.90;1.17;;;;;;;19.27;50.40;99545.42;123738;1109;104409;-77
2023/11/06 09:49:06;;;;;;;1.40;0.97;;;;;;;19.28;51.73;99549.84;124299;1109;103362;-79
2023/11/06 09:51:40;;;;;;;2.73;0.90;;;;;;;19.37;51.05;99544.39;123976;1107;104186;-79
2023/11/06 09:54:17;;;;;;;0.95;0.85;;;;;;;19.46;51.68;99561.09;123786;1109;102045;-77
2023/11/06 09:56:52;;;;;;;2.27;1.07;;;;;;;19.40;47.34;99565.63;123642;1108;104220;-76
2023/11/06 09:59:23;;;;;;;4.37;1.37;;;;;;;19.34;47.80;99557.73;123769;1108;104415;-78
2023/11/06 10:01:55;;;;;;;0.70;0.70;;;;;;;19.33;48.78;99569.27;124060;1109;104316;-77
2023/11/06 10:04:28;;;;;;;1.83;1.17;;;;;;;19.32;47.90;99567.53;123996;1109;104242;-81
2023/11/06 10:07:11;;;;;;;2.90;1.30;;;;;;;19.37;48.30;99570.98;125707;1107;102230;-78
2023/11/06 10:09:48;;;;;;;5.05;1.10;;;;;;;19.38;47.00;99571.86;125725;1107;102768;-78
2023/11/06 10:12:20;;;;;;;1.13;0.90;;;;;;;19.38;47.86;99572.76;125545;1108;102101;-78
2023/11/06 10:14:52;;;;;;;3.53;1.30;;;;;;;19.49;48.41;99575.22;125648;1108;102282;-77
2023/11/06 10:17:28;;;;;;;1.85;0.80;;;;;;;19.51;46.54;99577.86;125154;1108;102232;-79
2023/11/06 10:20:08;;;;;;;1.37;0.90;;;;;;;19.54;47.63;99577.81;123938;1109;104264;-76
2023/11/06 10:22:51;;;;;;;1.77;0.90;;;;;;;19.54;45.99;99591.11;123857;1109;104750;-78
2023/11/06 10:25:30;;;;;;;3.93;1.07;;;;;;;19.59;47.59;99575.98;123743;1109;104296;-79
2023/11/06 10:28:02;;;;;;;2.03;0.70;;;;;;;19.65;46.81;99582.97;125693;1108;102465;-78
2023/11/06 10:30:45;;;;;;;1.80;1.07;;;;;;;19.66;45.44;99592.72;124471;1109;104262;-78
2023/11/06 10:33:20;;;;;;;2.00;0.70;;;;;;;19.61;44.63;99602.56;123880;1109;104240;-78
2023/11/06 10:35:52;;;;;;;1.50;0.70;;;;;;;19.62;45.47;99593.66;123887;1109;104278;-75
2023/11/06 10:38:35;;;;;;;0.80;0.63;;;;;;;19.64;44.39;99605.18;124084;1108;104271;-81
2023/11/06 10:41:25;;;;;;;1.90;1.00;;;;;;;19.63;45.00;99593.63;125694;1108;102739;-77
2023/11/06 10:44:00;;;;;;;2.77;0.90;;;;;;;19.68;45.80;99596.22;125621;1108;102641;-79
2023/11/06 10:46:38;;;;;;;0.90;0.80;;;;;;;19.67;43.69;99597.15;125687;1106;101331;-79
2023/11/06 10:49:18;;;;;;;2.83;1.10;;;;;;;19.71;45.63;99597.08;125312;1109;102551;-78
2023/11/06 10:51:54;;;;;;;2.53;1.27;;;;;;;19.74;44.91;99599.69;124000;1109;103097;-80
2023/11/06 10:54:30;;;;;;;1.23;0.70;;;;;;;19.74;43.77;99604.11;124053;1109;104265;-82
2023/11/06 11:00:32;;;;;;;0.80;0.60;;;;;;;19.70;41.88;99616.59;124504;1109;104147;-83
2023/11/06 11:03:06;;;;;;;2.40;0.80;;;;;;;19.68;40.85;99617.52;124110;1108;104312;-81
2023/11/06 11:05:39;;;;;;;1.00;0.70;;;;;;;19.67;42.61;99619.31;124021;1109;104389;-78
2023/11/06 11:08:21;;;;;;;1.90;0.70;;;;;;;19.66;41.55;99620.20;125484;1108;102170;-80
2023/11/06 11:10:56;;;;;;;1.30;0.93;;;;;;;19.68;42.31;99621.08;125580;1108;102898;-80
2023/11/06 11:13:27;;;;;;;1.12;0.85;;;;;;;19.66;42.22;99614.88;125657;1107;102678;-79
2023/11/06 11:16:38;;;;;;;0.80;0.70;;;;;;;19.67;42.00;99621.97;125495;1107;102773;-78
2023/11/06 11:19:24;;;;;;;2.20;0.87;;;;;;;19.65;42.96;99613.14;124122;1109;104127;-76
2023/11/06 11:22:08;;;;;;;1.90;1.23;;;;;;;19.64;41.52;99613.16;124094;1108;102940;-78
2023/11/06 11:24:55;;;;;;;1.33;0.87;;;;;;;19.64;41.19;99607.84;124433;1109;104188;-76
2023/11/06 11:27:27;;;;;;;0.80;0.80;;;;;;;19.62;41.35;99614.95;124604;1108;102415;-76
2023/11/06 11:30:13;;;;;;;2.23;0.70;;;;;;;19.58;40.78;99611.47;124784;1108;104211;-77
2023/11/06 11:32:49;;;;;;;2.07;0.93;;;;;;;19.57;40.22;99610.59;123872;1108;104267;-75
2023/11/06 11:35:51;;;;;;;1.13;0.90;;;;;;;19.58;40.38;99614.99;123852;1109;102224;-77
2023/11/06 11:38:35;;;;;;;0.97;0.80;;;;;;;19.54;39.15;99625.70;124003;1109;104274;-80
2023/11/06 11:41:16;;;;;;;0.97;0.70;;;;;;;19.52;40.25;99623.06;124068;1108;102378;-77
2023/11/06 11:43:50;;;;;;;0.97;0.70;;;;;;;19.53;40.11;99626.63;123806;1107;102403;-78
2023/11/06 11:47:06;;;;;;;1.03;0.83;;;;;;;19.54;40.91;99626.61;123969;1108;104249;-77
2023/11/06 11:49:51;;;;;;;2.00;1.00;;;;;;;19.55;40.27;99627.48;124066;1109;104265;-78
2023/11/06 11:52:52;;;;;;;1.65;1.25;;;;;;;19.56;40.18;99629.25;124050;1109;102175;-79
2023/11/06 11:55:35;;;;;;;1.10;1.00;;;;;;;19.55;39.82;99633.66;123737;1111;104039;-79